createdAt,value
2017-08-29T22:33:04.778Z,29.64
2017-08-29T22:34:04.776Z,29.45
2017-08-29T22:35:57.721Z,29.09
2017-08-29T22:36:57.696Z,28.98
2017-08-29T22:38:50.640Z,28.92
2017-08-29T22:39:50.619Z,28.90
2017-08-29T22:41:43.573Z,28.88
2017-08-29T22:42:43.573Z,28.88
2017-08-29T22:44:37.208Z,28.86
2017-08-29T22:45:36.503Z,28.90
2017-08-29T22:47:29.430Z,28.83
2017-08-29T22:48:29.424Z,28.95
2017-08-29T22:50:22.644Z,28.98
2017-08-29T22:51:22.381Z,29.00
2017-08-29T22:53:15.790Z,28.89
2017-08-29T22:54:15.793Z,28.93
2017-08-29T22:56:08.744Z,28.85
2017-08-29T22:57:08.741Z,28.86
2017-08-29T22:59:01.707Z,28.89
2017-08-29T23:00:01.674Z,28.88
2017-08-29T23:01:54.602Z,28.80
2017-08-29T23:02:54.590Z,28.83
2017-08-29T23:04:48.041Z,28.89
2017-08-29T23:05:48.035Z,28.89
2017-08-29T23:07:41.235Z,28.86
2017-08-29T23:08:40.955Z,28.83
2017-08-29T23:10:33.899Z,28.81
2017-08-29T23:11:33.900Z,28.85
2017-08-29T23:13:26.818Z,28.86
2017-08-29T23:14:26.838Z,28.81
2017-08-29T23:16:19.752Z,28.88
2017-08-29T23:17:19.771Z,28.86
2017-08-29T23:19:12.979Z,28.78
2017-08-29T23:20:12.695Z,28.76
2017-08-29T23:22:06.121Z,28.86
2017-08-29T23:23:06.142Z,28.80
2017-08-29T23:24:59.333Z,28.81
2017-08-29T23:25:59.072Z,28.86
2017-08-29T23:27:52.014Z,28.89
2017-08-29T23:28:51.987Z,28.86
2017-08-29T23:30:44.941Z,28.81
2017-08-29T23:31:45.209Z,28.83
2017-08-29T23:33:38.088Z,28.90
2017-08-29T23:34:37.876Z,28.73
2017-08-29T23:36:31.299Z,28.81
2017-08-29T23:37:31.297Z,28.78
2017-08-29T23:39:24.212Z,28.78
2017-08-29T23:40:24.235Z,28.83
2017-08-29T23:42:17.700Z,28.83
2017-08-29T23:43:17.664Z,28.80
2017-08-29T23:45:11.088Z,28.78
2017-08-29T23:46:11.104Z,28.81
2017-08-29T23:48:04.553Z,28.81
2017-08-29T23:49:04.586Z,28.83
2017-08-29T23:50:58.007Z,28.80
2017-08-29T23:51:57.979Z,28.83
2017-08-29T23:53:51.446Z,28.68
2017-08-29T23:54:51.466Z,28.73
2017-08-29T23:56:44.392Z,28.77
2017-08-29T23:57:44.412Z,28.73
2017-08-29T23:59:37.342Z,28.70
